Time;durP1;ratioP1;P1;durP2;ratioP2;P2;SDS_P1;SDS_P2;PMS_P1;PMS_P2;Temp;Humidity;BMP_temperature;BMP_pressure;BME280_temperature;BME280_humidity;BME280_pressure;Samples;Min_cycle;Max_cycle;Signal;HPM_P1;HPM_P2
2022/05/30 00:01:39;;;;;;;5.27;4.13;;;;;;;9.39;59.95;100368.66;1663590;84;21171;-79
2022/05/30 00:04:05;;;;;;;6.95;4.42;;;;;;;9.33;60.02;100371.80;1670819;84;21097;-79
2022/05/30 00:06:32;;;;;;;7.50;4.35;;;;;;;9.26;60.13;100370.60;1663383;84;21025;-79
2022/05/30 00:08:57;;;;;;;6.90;4.87;;;;;;;9.25;60.18;100368.90;1671127;85;21112;-80
2022/05/30 00:11:25;;;;;;;5.13;4.60;;;;;;;9.22;60.19;100372.81;1674310;84;20855;-80
2022/05/30 00:13:51;;;;;;;6.60;4.65;;;;;;;9.18;60.23;100371.59;1663328;84;21065;-80
2022/05/30 00:16:22;;;;;;;6.30;4.77;;;;;;;8.92;60.28;100348.30;1667612;84;21096;-80
2022/05/30 00:18:48;;;;;;;5.30;4.70;;;;;;;8.92;60.28;100348.30;1673724;84;21931;-80
2022/05/30 00:21:24;;;;;;;5.53;4.63;;;;;;;8.99;60.50;100363.25;1680076;84;20966;-80
2022/05/30 00:23:53;;;;;;;8.20;4.85;;;;;;;8.95;60.57;100362.87;1693263;83;21429;-80
2022/05/30 00:26:20;;;;;;;6.00;4.70;;;;;;;8.89;60.57;100365.53;1666966;84;21013;-80
2022/05/30 00:28:46;;;;;;;;;;;;;;;8.81;60.60;100364.38;1682362;85;20866;-79
2022/05/30 00:31:15;;;;;;;4.75;3.95;;;;;;;8.77;61.05;100367.01;1677283;84;20111;-79
2022/05/30 00:33:45;;;;;;;5.17;3.85;;;;;;;8.71;60.66;100364.50;1683095;84;20874;-79
2022/05/30 00:36:11;;;;;;;4.55;4.03;;;;;;;8.63;60.68;100364.59;1675909;84;20981;-80
2022/05/30 00:38:41;;;;;;;7.80;4.40;;;;;;;8.59;60.73;100362.49;1674559;85;21083;-79
2022/05/30 00:41:07;;;;;;;7.25;4.55;;;;;;;8.54;60.72;100365.55;1674633;84;21108;-79
2022/05/30 00:43:37;;;;;;;5.08;4.17;;;;;;;8.47;60.74;100355.34;1677728;84;20993;-79
2022/05/30 00:46:12;;;;;;;5.03;4.53;;;;;;;8.40;60.89;100364.00;1686138;84;20957;-79
2022/05/30 00:48:43;;;;;;;5.58;4.70;;;;;;;8.38;60.91;100363.17;1703314;83;21080;-79
2022/05/30 00:51:27;;;;;;;6.53;4.57;;;;;;;8.34;60.96;100361.49;1690743;84;20961;-79
2022/05/30 00:53:56;;;;;;;7.42;4.97;;;;;;;8.28;61.00;100359.40;1705480;83;20902;-79
2022/05/30 00:56:27;;;;;;;5.83;4.05;;;;;;;8.22;61.04;100358.18;1683678;83;20890;-79
2022/05/30 00:58:53;;;;;;;5.85;4.65;;;;;;;8.18;61.13;100355.65;1690370;84;20949;-79
2022/05/30 01:01:21;;;;;;;7.05;3.98;;;;;;;8.15;61.12;100355.25;1686389;84;20949;-80
2022/05/30 01:06:41;;;;;;;4.58;4.17;;;;;;;8.06;61.18;100352.76;1685087;84;21418;-79
2022/05/30 01:09:18;;;;;;;4.80;4.10;;;;;;;8.01;61.28;100360.97;1677438;84;20913;-79
2022/05/30 01:11:57;;;;;;;6.15;4.45;;;;;;;7.97;61.33;100351.12;1677198;84;20882;-79
2022/05/30 01:14:29;;;;;;;4.20;3.80;;;;;;;7.94;61.35;100358.02;1692866;84;21104;-79
2022/05/30 01:16:58;;;;;;;6.05;3.85;;;;;;;7.85;61.31;100353.81;1690670;83;20933;-79
2022/05/30 01:22:57;;;;;;;4.85;3.87;;;;;;;7.74;61.52;100351.80;1679938;83;20937;-78
2022/05/30 01:25:47;;;;;;;5.40;3.83;;;;;;;7.72;61.53;100351.39;1680056;84;21004;-78
2022/05/30 01:28:50;;;;;;;4.87;3.90;;;;;;;7.68;61.55;100351.00;1678768;83;21112;-78
2022/05/30 01:31:17;;;;;;;5.67;3.90;;;;;;;7.61;61.66;100354.91;1679587;84;21044;-78
2022/05/30 01:33:44;;;;;;;6.33;4.62;;;;;;;7.56;61.70;100351.95;1684639;84;21484;-78
2022/05/30 01:36:11;;;;;;;4.42;4.00;;;;;;;7.51;61.76;100348.55;1690152;83;21056;-78
2022/05/30 01:38:37;;;;;;;;;;;;;;;7.49;61.91;100346.00;1702568;84;20997;-78
2022/05/30 01:41:03;;;;;;;5.75;3.85;;;;;;;7.48;62.30;100343.44;1700340;83;20201;-78
2022/05/30 01:43:31;;;;;;;5.83;3.85;;;;;;;7.50;62.02;100350.70;1693194;84;21123;-78
2022/05/30 01:46:11;;;;;;;6.65;4.58;;;;;;;7.49;62.04;100348.56;1694825;83;21108;-78
2022/05/30 01:48:50;;;;;;;6.50;4.42;;;;;;;7.49;62.00;100342.14;1688670;82;21057;-78
2022/05/30 01:51:20;;;;;;;4.08;3.58;;;;;;;7.43;61.93;100345.19;1703709;83;21041;-78
2022/05/30 01:53:46;;;;;;;4.55;4.15;;;;;;;7.38;61.98;100343.08;1693953;84;20945;-79
2022/05/30 01:56:14;;;;;;;5.10;4.25;;;;;;;7.31;61.97;100347.41;1681335;85;21033;-78
2022/05/30 01:58:40;;;;;;;4.95;3.62;;;;;;;7.13;62.04;100322.70;1692923;84;21123;-78
2022/05/30 02:01:18;;;;;;;5.15;4.55;;;;;;;7.22;62.10;100343.22;1690330;83;20926;-78
2022/05/30 02:03:47;;;;;;;5.15;4.65;;;;;;;7.17;62.19;100338.97;1679380;84;21012;-78
2022/05/30 02:06:13;;;;;;;6.28;4.50;;;;;;;7.13;62.26;100341.14;1691068;84;20962;-78
2022/05/30 02:08:43;;;;;;;4.90;4.40;;;;;;;7.11;62.36;100333.86;1682444;83;21442;-78
2022/05/30 02:11:10;;;;;;;6.70;4.62;;;;;;;7.11;62.48;100333.86;1687123;84;20953;-78
2022/05/30 02:13:38;;;;;;;3.90;3.58;;;;;;;7.11;62.62;100329.58;1678957;84;20875;-78
2022/05/30 02:19:00;;;;;;;5.62;3.58;;;;;;;7.13;62.63;100326.56;1688194;84;21029;-78
2022/05/30 02:21:32;;;;;;;3.25;2.40;;;;;;;7.06;62.51;100327.47;1685828;84;21060;-78
2022/05/30 02:23:58;;;;;;;2.60;2.40;;;;;;;6.95;62.48;100327.53;1697211;84;20974;-79
2022/05/30 02:26:24;;;;;;;5.45;2.90;;;;;;;6.88;62.53;100331.42;1693057;84;20929;-79
2022/05/30 02:28:50;;;;;;;2.87;2.58;;;;;;;6.82;62.52;100330.17;1687117;83;25039;-79
2022/05/30 02:31:17;;;;;;;2.93;2.57;;;;;;;6.75;62.58;100329.81;1689595;84;21567;-79
2022/05/30 02:36:39;;;;;;;4.12;3.22;;;;;;;6.68;62.77;100334.55;1694629;84;21426;-79
2022/05/30 02:39:16;;;;;;;2.60;2.40;;;;;;;6.60;62.69;100332.02;1685613;84;20898;-79
2022/05/30 02:41:46;;;;;;;2.98;2.67;;;;;;;6.54;62.72;100338.03;1697151;84;20874;-78
2022/05/30 02:44:14;;;;;;;3.33;3.02;;;;;;;6.52;62.70;100344.04;1688997;84;20918;-79
2022/05/30 02:46:41;;;;;;;4.08;3.67;;;;;;;6.48;62.74;100344.91;1691056;84;20894;-79
2022/05/30 02:49:08;;;;;;;4.37;2.98;;;;;;;6.44;62.75;100340.64;1697271;84;20958;-79
2022/05/30 02:51:34;;;;;;;6.47;3.25;;;;;;;6.41;62.84;100343.22;1689688;84;20938;-79
2022/05/30 02:54:00;;;;;;;3.35;3.05;;;;;;;6.35;62.87;100338.96;1697414;84;20944;-79
2022/05/30 02:56:27;;;;;;;4.00;3.47;;;;;;;6.36;63.04;100342.37;1701416;83;20949;-79
2022/05/30 02:58:53;;;;;;;3.20;2.95;;;;;;;6.40;63.08;100347.94;1697075;84;20909;-79
2022/05/30 03:01:19;;;;;;;3.15;2.85;;;;;;;6.38;63.00;100346.66;1697584;84;20941;-79
2022/05/30 03:03:45;;;;;;;4.07;3.33;;;;;;;6.32;62.99;100342.81;1697496;84;20917;-79
2022/05/30 03:06:12;;;;;;;4.83;3.60;;;;;;;6.30;63.11;100336.41;1682894;84;20952;-79
2022/05/30 03:08:38;;;;;;;;;;;;;;;6.29;63.13;100335.13;1704049;84;21406;-79
2022/05/30 03:11:04;;;;;;;3.75;3.40;;;;;;;6.25;63.67;100335.99;1698225;84;20168;-79
2022/05/30 03:13:31;;;;;;;4.10;3.30;;;;;;;6.28;63.46;100335.98;1677351;84;20914;-79
2022/05/30 03:15:58;;;;;;;5.23;3.07;;;;;;;6.34;63.32;100340.25;1670879;83;426936;-79
2022/05/30 03:18:25;;;;;;;4.85;3.02;;;;;;;6.35;63.39;100341.53;1694593;82;21446;-79
2022/05/30 03:20:54;;;;;;;3.77;3.47;;;;;;;6.40;63.39;100345.36;1714416;82;20909;-79
2022/05/30 03:23:20;;;;;;;5.08;3.65;;;;;;;6.47;63.51;100352.19;1718324;82;20905;-79
2022/05/30 03:25:46;;;;;;;3.90;3.50;;;;;;;6.57;63.62;100351.30;1721230;82;20878;-79
2022/05/30 03:28:12;;;;;;;4.65;4.10;;;;;;;6.69;63.70;100346.11;1702404;82;20890;-79
2022/05/30 03:30:38;;;;;;;7.43;4.10;;;;;;;6.82;63.76;100350.30;1707607;83;20889;-79
2022/05/30 03:33:05;;;;;;;4.57;3.83;;;;;;;6.92;63.79;100345.97;1710562;83;20921;-79
2022/05/30 03:35:32;;;;;;;4.30;3.90;;;;;;;6.99;63.83;100345.07;1715974;83;20933;-79
2022/05/30 03:37:59;;;;;;;6.65;3.65;;;;;;;7.09;63.90;100344.16;1701974;83;20945;-79
2022/05/30 03:40:26;;;;;;;4.45;3.65;;;;;;;7.20;63.97;100342.80;1723317;81;20953;-79
2022/05/30 03:42:53;;;;;;;4.40;3.50;;;;;;;7.25;63.99;100341.91;1712730;83;20946;-79
2022/05/30 03:45:19;;;;;;;3.87;3.58;;;;;;;7.31;64.10;100343.13;1721502;83;20878;-79
2022/05/30 03:47:46;;;;;;;;;;;;;;;7.40;64.14;100340.06;1685250;84;20890;-79
2022/05/30 03:50:18;;;;;;;4.90;3.65;;;;;;;7.49;64.67;100344.70;1714685;83;20124;-79
2022/05/30 03:52:44;;;;;;;5.95;3.77;;;;;;;7.55;64.16;100337.38;1721581;83;20981;-80
2022/05/30 03:55:15;;;;;;;4.45;4.00;;;;;;;7.59;64.18;100339.06;1705101;83;21128;-80
2022/05/30 03:57:42;;;;;;;4.80;4.30;;;;;;;7.66;64.29;100339.42;1720611;83;21039;-79
2022/05/30 04:00:18;;;;;;;5.58;4.47;;;;;;;7.71;64.23;100341.97;1700578;82;20948;-79
2022/05/30 04:02:48;;;;;;;5.53;4.42;;;;;;;7.78;64.45;100337.19;1718969;82;20901;-79
2022/05/30 04:05:18;;;;;;;6.67;4.83;;;;;;;7.98;64.56;100333.52;1717965;82;20917;-79
2022/05/30 04:07:44;;;;;;;7.53;4.87;;;;;;;8.15;64.64;100335.08;1712378;82;21078;-79
2022/05/30 04:10:12;;;;;;;6.33;4.87;;;;;;;8.32;64.68;100331.85;1724201;83;21080;-80
2022/05/30 04:12:39;;;;;;;5.22;4.72;;;;;;;8.45;64.67;100328.73;1727800;82;21120;-80
2022/05/30 04:15:09;;;;;;;6.40;4.80;;;;;;;8.52;64.58;100332.95;1726664;82;27991;-80
2022/05/30 04:17:42;;;;;;;6.80;5.08;;;;;;;8.59;64.67;100330.71;1711173;83;20918;-80
2022/05/30 04:20:10;;;;;;;5.33;4.83;;;;;;;8.69;64.74;100328.87;1717911;83;20901;-80
2022/05/30 04:22:36;;;;;;;7.28;4.70;;;;;;;8.75;64.75;100333.52;1705333;83;21170;-80
2022/05/30 04:25:06;;;;;;;6.10;5.25;;;;;;;8.83;64.85;100329.11;1712642;83;20883;-80
2022/05/30 04:27:33;;;;;;;6.97;5.30;;;;;;;8.93;64.89;100329.81;1685835;83;21057;-80
2022/05/30 04:29:59;;;;;;;7.85;5.70;;;;;;;9.03;64.95;100327.52;1711567;81;21008;-79
2022/05/30 04:32:26;;;;;;;9.68;6.95;;;;;;;9.12;64.97;100328.67;1714643;81;20910;-79
2022/05/30 04:34:52;;;;;;;7.55;6.00;;;;;;;9.23;65.07;100324.65;1718280;81;20894;-79
2022/05/30 04:37:19;;;;;;;12.65;9.70;;;;;;;9.35;65.15;100327.05;1727318;83;20886;-79
2022/05/30 04:39:45;;;;;;;;;;;;;;;9.48;65.20;100327.23;1709945;82;20929;-79
2022/05/30 04:42:11;;;;;;;9.63;8.27;;;;;;;9.63;65.68;100325.69;1722357;83;20243;-79
2022/05/30 04:44:38;;;;;;;10.32;7.35;;;;;;;9.80;65.35;100325.84;1726141;83;21129;-79
2022/05/30 04:47:11;;;;;;;8.15;7.35;;;;;;;9.99;65.36;100329.78;1683694;83;21026;-79
2022/05/30 04:49:36;;;;;;;8.58;6.85;;;;;;;10.18;65.39;100331.59;1677824;84;21089;-79
2022/05/30 04:52:02;;;;;;;9.03;7.10;;;;;;;10.37;65.40;100332.13;1663266;85;21013;-79
2022/05/30 04:54:28;;;;;;;11.90;6.72;;;;;;;10.56;65.42;100325.67;1659477;84;21839;-79
2022/05/30 04:56:55;;;;;;;7.42;6.72;;;;;;;10.76;65.50;100325.27;1658714;85;21081;-79
2022/05/30 04:59:21;;;;;;;9.13;6.47;;;;;;;11.04;65.50;100326.77;1663872;84;21094;-78
2022/05/30 05:01:47;;;;;;;7.83;7.03;;;;;;;11.34;65.45;100323.48;1667610;84;21161;-79
2022/05/30 05:04:14;;;;;;;8.15;7.03;;;;;;;11.58;65.36;100325.90;1647048;85;21093;-79
2022/05/30 05:06:43;;;;;;;;;;;;;;;12.00;65.59;100325.25;1646909;85;21106;-79
2022/05/30 05:09:20;;;;;;;7.17;6.12;;;;;;;12.29;65.34;100323.62;1664982;85;20195;-79
2022/05/30 05:11:48;;;;;;;7.30;6.40;;;;;;;12.41;65.17;100329.32;1667301;84;21065;-79
2022/05/30 05:14:16;;;;;;;8.85;6.70;;;;;;;12.49;65.17;100326.48;1663419;85;21116;-79
2022/05/30 05:16:42;;;;;;;8.48;6.20;;;;;;;12.60;65.18;100327.03;1662556;85;21060;-79
2022/05/30 05:19:09;;;;;;;9.28;7.35;;;;;;;12.75;65.19;100329.18;1652589;86;21087;-79
2022/05/30 05:21:40;;;;;;;7.55;6.25;;;;;;;12.92;65.10;100323.05;1634657;86;21057;-79
2022/05/30 05:24:08;;;;;;;10.45;7.35;;;;;;;13.11;65.21;100323.75;1663997;86;21010;-79
2022/05/30 05:26:43;;;;;;;7.58;6.50;;;;;;;13.58;65.45;100327.44;1654068;86;21387;-79
2022/05/30 05:29:09;;;;;;;8.33;6.00;;;;;;;14.25;65.45;100325.11;1662954;85;21447;-79
2022/05/30 05:31:35;;;;;;;10.28;6.50;;;;;;;15.03;65.33;100313.95;1677113;85;21367;-79
2022/05/30 05:34:07;;;;;;;17.23;10.25;;;;;;;15.83;65.19;100307.63;1674515;84;20913;-79
2022/05/30 05:36:37;;;;;;;10.20;6.97;;;;;;;16.41;65.02;100304.60;1666065;84;20969;-79
2022/05/30 05:39:04;;;;;;;6.37;5.78;;;;;;;17.17;65.06;100306.25;1670874;85;21398;-79
2022/05/30 05:41:30;;;;;;;5.35;4.78;;;;;;;18.06;65.07;100307.06;1637335;85;20949;-79
2022/05/30 05:43:57;;;;;;;5.67;4.73;;;;;;;18.61;64.56;100310.23;1677290;84;20925;-79
2022/05/30 05:46:31;;;;;;;9.15;4.78;;;;;;;18.70;64.38;100313.67;1668656;85;21510;-79
2022/05/30 05:48:58;;;;;;;6.22;4.17;;;;;;;18.87;64.45;100320.58;1677943;84;21501;-79
2022/05/30 05:51:25;;;;;;;7.20;5.05;;;;;;;18.88;64.16;100323.58;1689950;84;20918;-79
2022/05/30 05:53:53;;;;;;;6.20;4.45;;;;;;;18.68;63.94;100331.24;1661956;85;21387;-79
2022/05/30 05:56:29;;;;;;;7.28;4.83;;;;;;;18.48;63.71;100335.36;1667730;85;21790;-79
2022/05/30 05:58:58;;;;;;;5.37;4.80;;;;;;;18.25;63.68;100342.25;1666032;85;21347;-79
2022/05/30 06:01:31;;;;;;;5.33;4.80;;;;;;;18.18;63.83;100340.45;1669006;85;20976;-79
2022/05/30 06:04:01;;;;;;;7.87;4.87;;;;;;;18.60;63.95;100341.72;1690493;83;21566;-79
2022/05/30 06:06:27;;;;;;;7.40;4.67;;;;;;;19.34;63.92;100343.28;1658163;85;21511;-79
2022/05/30 06:08:56;;;;;;;5.12;4.70;;;;;;;20.02;63.67;100347.64;1682242;84;20916;-79
2022/05/30 06:11:24;;;;;;;5.78;4.90;;;;;;;20.54;63.43;100342.72;1677805;84;20935;-79
2022/05/30 06:13:50;;;;;;;6.15;5.33;;;;;;;21.04;63.30;100334.74;1663521;85;20977;-79
2022/05/30 06:16:27;;;;;;;7.28;5.05;;;;;;;21.46;63.06;100337.70;1662483;85;21964;-79
2022/05/30 06:19:00;;;;;;;6.87;4.95;;;;;;;21.78;62.76;100339.06;1673282;84;21072;-79
2022/05/30 06:21:29;;;;;;;8.75;4.50;;;;;;;22.02;62.37;100342.31;1676631;83;21811;-79
2022/05/30 06:23:56;;;;;;;5.90;5.03;;;;;;;22.22;62.33;100343.11;1712310;82;20922;-79
2022/05/30 06:26:24;;;;;;;6.80;5.42;;;;;;;22.51;61.81;100348.14;1693312;82;21162;-79
2022/05/30 06:28:50;;;;;;;5.47;4.58;;;;;;;22.56;61.36;100342.06;1724133;82;21473;-79
2022/05/30 06:31:21;;;;;;;7.08;4.65;;;;;;;22.71;61.32;100347.58;1727170;81;21517;-79
2022/05/30 06:33:49;;;;;;;5.50;4.78;;;;;;;22.88;60.68;100349.03;1717735;82;21648;-79
2022/05/30 06:36:18;;;;;;;5.25;4.53;;;;;;;22.96;60.54;100347.53;1721750;82;21026;-79
2022/05/30 06:38:44;;;;;;;14.20;5.97;;;;;;;22.94;60.21;100350.75;1719669;82;21567;-79
2022/05/30 06:41:30;;;;;;;5.43;4.47;;;;;;;22.83;59.79;100355.98;1720760;82;21540;-79
2022/05/30 06:44:08;;;;;;;7.30;4.87;;;;;;;22.77;59.75;100352.42;1719526;82;21499;-79
2022/05/30 06:46:35;;;;;;;5.50;4.73;;;;;;;22.73;59.34;100356.23;1712729;82;21468;-79
2022/05/30 06:49:05;;;;;;;4.92;4.37;;;;;;;22.37;58.82;100361.78;1710438;82;21563;-79
2022/05/30 06:51:36;;;;;;;13.53;4.15;;;;;;;22.26;58.77;100360.39;1714022;82;21489;-79
2022/05/30 06:54:05;;;;;;;4.87;4.37;;;;;;;22.22;58.42;100360.23;1701113;82;21029;-79
2022/05/30 06:56:37;;;;;;;4.28;3.87;;;;;;;22.25;58.14;100358.71;1720277;82;21537;-79
2022/05/30 06:59:04;;;;;;;4.65;4.15;;;;;;;22.31;57.80;100352.18;1721929;82;21478;-78
2022/05/30 07:01:34;;;;;;;6.30;4.45;;;;;;;22.40;57.68;100354.14;1718610;82;21437;-79
2022/05/30 07:04:01;;;;;;;5.90;4.58;;;;;;;22.50;57.33;100351.24;1707732;82;21428;-79
2022/05/30 07:06:34;;;;;;;9.70;8.93;;;;;;;22.60;56.99;100347.49;1714207;81;21405;-79
2022/05/30 07:09:02;;;;;;;8.63;7.92;;;;;;;22.74;56.86;100353.48;1714396;82;21409;-79
2022/05/30 07:11:31;;;;;;;5.10;3.98;;;;;;;22.81;56.30;100347.81;1720719;82;21421;-79
2022/05/30 07:13:58;;;;;;;4.30;3.70;;;;;;;22.73;56.18;100346.52;1717091;82;20933;-79
2022/05/30 07:16:25;;;;;;;4.40;3.53;;;;;;;22.77;56.01;100346.67;1726920;82;20914;-79
2022/05/30 07:18:52;;;;;;;4.22;3.85;;;;;;;22.97;55.94;100336.03;1722915;82;21442;-79
2022/05/30 07:21:18;;;;;;;4.70;4.20;;;;;;;23.13;55.42;100350.27;1722906;82;21402;-79
2022/05/30 07:23:44;;;;;;;5.00;4.28;;;;;;;23.16;55.15;100344.78;1712818;82;20965;-79
2022/05/30 07:26:17;;;;;;;4.67;3.47;;;;;;;23.25;54.82;100347.22;1718478;82;21362;-79
2022/05/30 07:28:43;;;;;;;4.35;3.58;;;;;;;23.26;54.73;100351.55;1722785;82;20881;-79
2022/05/30 07:31:13;;;;;;;6.43;3.87;;;;;;;23.26;54.28;100349.75;1711548;82;20941;-79
2022/05/30 07:33:44;;;;;;;4.08;3.40;;;;;;;23.22;54.11;100347.45;1707780;82;20863;-79
2022/05/30 07:36:15;;;;;;;4.55;3.00;;;;;;;23.30;53.91;100343.30;1686024;83;21575;-79
2022/05/30 07:38:41;;;;;;;3.22;2.92;;;;;;;23.32;53.32;100339.23;1693513;82;20938;-79
2022/05/30 07:41:07;;;;;;;3.33;3.02;;;;;;;23.18;53.17;100342.03;1703552;82;21438;-79
2022/05/30 07:43:34;;;;;;;4.75;3.00;;;;;;;23.10;52.96;100345.22;1720368;82;20877;-79
2022/05/30 07:46:06;;;;;;;3.02;2.72;;;;;;;23.05;52.72;100341.59;1714439;83;20902;-79
2022/05/30 07:48:33;;;;;;;4.67;2.27;;;;;;;23.09;52.57;100339.10;1712437;83;20894;-79
2022/05/30 07:51:01;;;;;;;3.70;2.50;;;;;;;23.24;52.40;100335.83;1713921;83;26876;-79
2022/05/30 07:53:28;;;;;;;3.12;2.20;;;;;;;23.38;52.04;100342.73;1700489;83;21378;-78
2022/05/30 07:55:55;;;;;;;4.95;2.52;;;;;;;23.31;51.40;100331.79;1709181;82;20882;-79
2022/05/30 07:58:21;;;;;;;3.30;2.05;;;;;;;23.24;51.42;100333.67;1707751;82;21479;-79
2022/05/30 08:00:52;;;;;;;6.78;1.90;;;;;;;23.22;51.09;100332.94;1700205;83;21099;-81
2022/05/30 08:03:21;;;;;;;2.40;2.00;;;;;;;23.26;51.04;100332.60;1719853;82;21564;-81
2022/05/30 08:05:49;;;;;;;2.58;1.98;;;;;;;23.29;50.70;100329.73;1715615;82;20933;-81
2022/05/30 08:08:16;;;;;;;3.23;2.17;;;;;;;23.26;50.52;100333.08;1720637;82;20985;-81
2022/05/30 08:10:43;;;;;;;3.40;2.33;;;;;;;23.25;50.26;100330.92;1722968;81;20940;-81
2022/05/30 08:13:09;;;;;;;2.27;2.07;;;;;;;23.26;50.03;100328.64;1713946;83;20901;-81
2022/05/30 08:15:35;;;;;;;2.83;1.73;;;;;;;23.30;49.95;100331.90;1721370;81;22095;-81
2022/05/30 08:18:02;;;;;;;5.47;1.90;;;;;;;23.40;49.54;100330.23;1708325;83;21140;-81
2022/05/30 08:20:31;;;;;;;2.37;1.40;;;;;;;23.42;49.50;100329.17;1715133;83;21069;-81
2022/05/30 08:22:57;;;;;;;1.70;1.20;;;;;;;23.48;49.32;100332.31;1702787;82;21320;-82
2022/05/30 08:25:24;;;;;;;2.22;1.52;;;;;;;23.40;48.82;100325.80;1710974;82;21056;-81
2022/05/30 08:27:50;;;;;;;1.75;1.50;;;;;;;23.33;48.51;100325.08;1715771;82;20973;-81
2022/05/30 08:30:20;;;;;;;4.08;1.40;;;;;;;23.21;48.44;100326.82;1695723;83;21038;-81
2022/05/30 08:32:48;;;;;;;3.60;1.30;;;;;;;23.01;48.10;100324.78;1671561;84;21423;-81
2022/05/30 08:35:17;;;;;;;2.75;1.60;;;;;;;22.95;48.15;100326.55;1680295;84;21022;-81
2022/05/30 08:37:44;;;;;;;3.25;1.27;;;;;;;23.00;47.82;100325.26;1676081;84;21046;-81
2022/05/30 08:43:09;;;;;;;2.00;1.42;;;;;;;23.09;47.54;100325.07;1680189;84;21050;-81
2022/05/30 08:45:38;;;;;;;2.08;1.50;;;;;;;23.12;47.35;100319.57;1684042;84;21069;-81
2022/05/30 08:48:14;;;;;;;1.92;1.30;;;;;;;23.14;47.18;100323.42;1688439;84;21117;-81
2022/05/30 08:51:17;;;;;;;2.87;1.50;;;;;;;23.11;46.97;100322.69;1683846;84;21402;-81
2022/05/30 08:53:51;;;;;;;3.70;2.00;;;;;;;23.19;46.62;100322.13;1688353;84;21493;-81
2022/05/30 08:56:33;;;;;;;3.00;2.00;;;;;;;23.05;46.61;100322.29;1681990;84;20951;-80
2022/05/30 08:59:48;;;;;;;3.62;1.57;;;;;;;22.88;46.44;100319.55;1684513;84;21309;-81
2022/05/30 09:02:33;;;;;;;3.25;1.35;;;;;;;22.69;46.42;100324.44;1685427;84;21069;-81
2022/05/30 09:05:20;;;;;;;3.55;1.50;;;;;;;22.41;45.89;100330.80;1680830;84;21002;-81
2022/05/30 09:07:52;;;;;;;2.77;1.30;;;;;;;22.07;45.94;100330.98;1683057;84;21042;-81
2022/05/30 09:10:32;;;;;;;3.10;1.37;;;;;;;21.75;45.74;100337.95;1691703;84;21378;-81
2022/05/30 09:13:25;;;;;;;1.55;1.05;;;;;;;21.49;45.61;100338.83;1679668;84;21403;-81
2022/05/30 09:16:21;;;;;;;1.60;1.02;;;;;;;21.12;45.49;100335.94;1701877;84;20910;-81
2022/05/30 09:18:53;;;;;;;3.45;1.32;;;;;;;20.80;45.44;100334.50;1679427;84;20911;-81
2022/05/30 09:21:22;;;;;;;2.85;1.25;;;;;;;20.45;45.31;100335.40;1689815;84;21306;-81
2022/05/30 09:23:48;;;;;;;2.02;1.22;;;;;;;20.19;45.33;100333.51;1681968;84;20935;-81
2022/05/30 09:26:22;;;;;;;1.77;1.40;;;;;;;20.02;45.30;100330.58;1697328;83;26302;-80
2022/05/30 09:28:51;;;;;;;2.02;1.10;;;;;;;19.90;45.25;100329.52;1676697;84;20880;-80
2022/05/30 09:31:47;;;;;;;1.10;1.00;;;;;;;19.76;45.06;100321.61;1682848;83;20957;-80
2022/05/30 09:34:35;;;;;;;;;;;;;;;19.69;45.02;100325.56;1697039;83;20918;-80
2022/05/30 09:37:01;;;;;;;1.85;1.12;;;;;;;19.66;44.80;100321.33;1707004;82;20114;-80
2022/05/30 09:39:48;;;;;;;1.77;1.17;;;;;;;19.64;44.92;100321.89;1705580;83;20874;-80
2022/05/30 09:42:28;;;;;;;4.83;0.98;;;;;;;19.61;44.73;100323.38;1721295;83;20869;-80
2022/05/30 09:45:14;;;;;;;2.52;1.02;;;;;;;19.58;44.70;100318.31;1700093;83;21001;-80
2022/05/30 09:48:05;;;;;;;2.12;1.10;;;;;;;19.59;44.66;100318.69;1710679;83;20964;-80
2022/05/30 09:50:43;;;;;;;1.30;0.98;;;;;;;19.57;44.47;100324.95;1718348;83;21108;-80
2022/05/30 09:53:09;;;;;;;2.15;1.10;;;;;;;19.56;44.52;100320.64;1709776;83;21136;-80
2022/05/30 09:55:48;;;;;;;1.62;1.25;;;;;;;19.57;44.45;100320.55;1715476;82;27015;-80
2022/05/30 09:58:15;;;;;;;3.87;1.42;;;;;;;19.55;44.49;100316.33;1701527;83;21069;-80
2022/05/30 10:00:57;;;;;;;3.47;1.72;;;;;;;19.55;44.54;100312.39;1713076;83;21086;-80
2022/05/30 10:03:40;;;;;;;2.10;1.27;;;;;;;19.51;44.49;100306.48;1702262;83;21076;-81
2022/05/30 10:06:17;;;;;;;5.87;1.25;;;;;;;19.44;44.54;100307.27;1705142;83;21052;-80
2022/05/30 10:08:46;;;;;;;5.75;1.40;;;;;;;19.42;44.46;100306.98;1703808;83;20941;-80
2022/05/30 10:11:35;;;;;;;2.35;1.47;;;;;;;19.38;44.50;100307.62;1604246;81;10000188;-81
2022/05/30 10:14:18;;;;;;;3.58;1.35;;;;;;;19.42;44.45;100303.89;1711113;81;21032;-81
2022/05/30 10:16:45;;;;;;;1.82;1.35;;;;;;;19.44;44.48;100305.95;1711709;82;21052;-81
2022/05/30 10:19:25;;;;;;;1.22;0.98;;;;;;;19.43;44.46;100308.67;1711180;82;245809;-81
2022/05/30 10:28:41;;;;;;;0.85;0.80;;;;;;;19.40;44.33;100303.13;1705873;83;21071;-80
2022/05/30 10:31:27;;;;;;;2.20;1.42;;;;;;;19.43;44.27;100313.45;1700495;81;21140;-80
2022/05/30 10:34:18;;;;;;;1.90;1.10;;;;;;;19.38;44.29;100314.17;1716834;82;21032;-80
2022/05/30 10:37:12;;;;;;;2.62;1.17;;;;;;;19.32;44.19;100325.47;1717405;82;21031;-80
2022/05/30 10:40:02;;;;;;;2.00;1.05;;;;;;;19.14;44.16;100316.44;1722490;82;21064;-81
2022/05/30 10:42:48;;;;;;;1.50;0.98;;;;;;;19.04;44.19;100310.48;1704884;82;21065;-81
2022/05/30 10:45:46;;;;;;;1.25;1.05;;;;;;;18.93;44.17;100314.16;1703938;82;20902;-81
2022/05/30 10:48:31;;;;;;;1.32;1.12;;;;;;;18.89;44.22;100318.72;1723255;82;20930;-81
2022/05/30 10:51:02;;;;;;;;;;;;;;;18.93;44.13;100315.00;1728655;82;20941;-81
2022/05/30 10:53:36;;;;;;;3.00;0.95;;;;;;;18.93;44.11;100316.78;1722572;81;20111;-80
2022/05/30 10:56:27;;;;;;;1.07;0.90;;;;;;;19.08;44.28;100312.84;1720408;82;20921;-80
2022/05/30 10:59:33;;;;;;;3.60;1.30;;;;;;;19.24;44.26;100314.58;1718681;82;21034;-80
2022/05/30 11:02:40;;;;;;;1.67;0.90;;;;;;;19.45;44.24;100322.07;1716645;82;21052;-81
2022/05/30 11:05:15;;;;;;;2.70;0.85;;;;;;;19.54;44.00;100325.98;1731799;82;21690;-80
2022/05/30 11:08:27;;;;;;;1.77;0.80;;;;;;;19.57;43.91;100333.67;1715466;81;20953;-80
2022/05/30 11:11:07;;;;;;;2.35;0.80;;;;;;;19.54;43.72;100334.31;1728656;81;20913;-80
2022/05/30 11:13:39;;;;;;;3.45;1.05;;;;;;;19.44;43.70;100336.11;1725632;81;20972;-80
2022/05/30 11:16:27;;;;;;;1.67;0.93;;;;;;;19.41;43.68;100339.38;1726189;82;20909;-80
2022/05/30 11:18:59;;;;;;;0.68;0.57;;;;;;;19.35;43.67;100334.48;1728715;82;20946;-81
2022/05/30 11:21:45;;;;;;;1.00;0.80;;;;;;;19.33;43.54;100338.50;1716851;82;20957;-80
2022/05/30 11:24:15;;;;;;;2.55;0.80;;;;;;;19.32;43.62;100332.88;1728798;81;20893;-80
2022/05/30 11:27:07;;;;;;;2.08;0.85;;;;;;;19.41;43.57;100335.45;1724017;82;20973;-80
2022/05/30 11:30:12;;;;;;;1.22;0.60;;;;;;;19.45;43.52;100334.34;1724364;81;20943;-80
2022/05/30 11:33:00;;;;;;;1.37;0.75;;;;;;;19.49;43.44;100329.30;1736639;81;20974;-80
2022/05/30 11:35:42;;;;;;;1.27;0.82;;;;;;;19.56;43.43;100331.98;1737105;81;20938;-80
2022/05/30 11:38:41;;;;;;;0.98;0.68;;;;;;;19.53;43.40;100334.78;1719703;81;21076;-80
2022/05/30 11:41:36;;;;;;;2.20;1.40;;;;;;;19.57;43.42;100333.67;1722333;82;21057;-80
2022/05/30 11:44:22;;;;;;;1.62;0.60;;;;;;;19.54;43.36;100333.00;1727387;82;21017;-80
2022/05/30 11:47:15;;;;;;;1.60;0.70;;;;;;;19.54;43.46;100335.16;1713120;82;21051;-80
2022/05/30 11:50:01;;;;;;;1.50;0.72;;;;;;;19.58;43.44;100334.05;1716789;82;21333;-80
2022/05/30 11:53:00;;;;;;;0.95;0.68;;;;;;;19.55;43.25;100330.29;1717845;81;21052;-81
2022/05/30 11:55:37;;;;;;;1.07;0.60;;;;;;;19.48;43.08;100331.55;1725733;82;21527;-80
2022/05/30 11:58:11;;;;;;;2.20;0.75;;;;;;;19.35;43.07;100335.33;1711854;81;21013;-80
2022/05/30 12:00:49;;;;;;;1.30;0.93;;;;;;;19.26;43.06;100329.75;1724500;82;21115;-80
2022/05/30 12:03:54;;;;;;;2.47;1.05;;;;;;;19.23;43.15;100326.03;1706553;82;21024;-80
2022/05/30 12:06:29;;;;;;;2.87;0.82;;;;;;;19.29;43.13;100330.89;1721212;81;21061;-80
2022/05/30 12:09:19;;;;;;;3.25;1.72;;;;;;;19.41;43.17;100332.36;1720279;82;21068;-79
2022/05/30 12:12:08;;;;;;;1.60;0.88;;;;;;;19.53;43.16;100329.53;1715169;82;21112;-78
2022/05/30 12:15:01;;;;;;;0.95;0.70;;;;;;;19.61;43.11;100327.31;1722151;82;21373;-79
2022/05/30 12:24:25;;;;;;;1.87;0.80;;;;;;;19.54;42.95;100322.05;1674237;84;21100;-79